sensor_id;sensor_type;location;lat;lon;timestamp;temperature;humidity
29093;DHT22;16167;48.768;14.984;2023-02-28T00:00:26;-1.20;1.00
29093;DHT22;16167;48.768;14.984;2023-02-28T00:02:55;-1.20;1.00
29093;DHT22;16167;48.768;14.984;2023-02-28T00:05:24;-1.20;1.00
29093;DHT22;16167;48.768;14.984;2023-02-28T00:07:53;-1.20;1.00
29093;DHT22;16167;48.768;14.984;2023-02-28T00:10:22;-1.20;1.00
29093;DHT22;16167;48.768;14.984;2023-02-28T00:12:51;-1.20;1.00
29093;DHT22;16167;48.768;14.984;2023-02-28T00:15:19;-1.30;1.00
29093;DHT22;16167;48.768;14.984;2023-02-28T00:17:47;-1.30;1.00
29093;DHT22;16167;48.768;14.984;2023-02-28T00:20:15;-1.30;1.00
29093;DHT22;16167;48.768;14.984;2023-02-28T00:22:45;-1.30;1.00
29093;DHT22;16167;48.768;14.984;2023-02-28T00:25:14;-1.30;1.00
29093;DHT22;16167;48.768;14.984;2023-02-28T00:27:43;-1.30;1.00
29093;DHT22;16167;48.768;14.984;2023-02-28T00:30:11;-1.40;1.00
29093;DHT22;16167;48.768;14.984;2023-02-28T00:32:40;-1.40;1.00
29093;DHT22;16167;48.768;14.984;2023-02-28T00:35:08;-1.40;1.00
29093;DHT22;16167;48.768;14.984;2023-02-28T00:37:36;-1.30;1.00
29093;DHT22;16167;48.768;14.984;2023-02-28T00:40:07;-1.30;1.00
29093;DHT22;16167;48.768;14.984;2023-02-28T00:42:36;-1.30;1.00
29093;DHT22;16167;48.768;14.984;2023-02-28T00:45:04;-1.30;1.00
29093;DHT22;16167;48.768;14.984;2023-02-28T00:47:32;-1.40;1.00
29093;DHT22;16167;48.768;14.984;2023-02-28T00:50:00;-1.40;1.00
29093;DHT22;16167;48.768;14.984;2023-02-28T00:52:28;-1.40;1.00
29093;DHT22;16167;48.768;14.984;2023-02-28T00:54:56;-1.40;1.00
29093;DHT22;16167;48.768;14.984;2023-02-28T00:57:25;-1.40;1.00
29093;DHT22;16167;48.768;14.984;2023-02-28T00:59:53;-1.40;1.00
29093;DHT22;16167;48.768;14.984;2023-02-28T01:02:21;-1.40;1.00
29093;DHT22;16167;48.768;14.984;2023-02-28T01:04:49;-1.50;1.00
29093;DHT22;16167;48.768;14.984;2023-02-28T01:07:18;-1.50;1.00
29093;DHT22;16167;48.768;14.984;2023-02-28T01:09:46;-1.40;1.00
29093;DHT22;16167;48.768;14.984;2023-02-28T01:12:13;-1.50;1.00
29093;DHT22;16167;48.768;14.984;2023-02-28T01:14:43;-1.40;1.00
29093;DHT22;16167;48.768;14.984;2023-02-28T01:17:11;-1.50;1.00
29093;DHT22;16167;48.768;14.984;2023-02-28T01:19:38;-1.50;1.00
29093;DHT22;16167;48.768;14.984;2023-02-28T01:22:06;-1.50;1.00
29093;DHT22;16167;48.768;14.984;2023-02-28T01:24:34;-1.50;1.00
29093;DHT22;16167;48.768;14.984;2023-02-28T01:27:02;-1.60;1.00
29093;DHT22;16167;48.768;14.984;2023-02-28T01:29:30;-1.70;1.00
29093;DHT22;16167;48.768;14.984;2023-02-28T01:31:59;-1.70;1.00
29093;DHT22;16167;48.768;14.984;2023-02-28T01:34:27;-1.70;1.00
29093;DHT22;16167;48.768;14.984;2023-02-28T01:36:55;-1.70;1.00
29093;DHT22;16167;48.768;14.984;2023-02-28T01:39:25;-1.70;1.00
29093;DHT22;16167;48.768;14.984;2023-02-28T01:41:53;-1.80;1.00
29093;DHT22;16167;48.768;14.984;2023-02-28T01:47:08;-1.80;1.00
29093;DHT22;16167;48.768;14.984;2023-02-28T01:49:36;-1.90;1.00
29093;DHT22;16167;48.768;14.984;2023-02-28T01:52:04;-2.00;1.00
29093;DHT22;16167;48.768;14.984;2023-02-28T01:54:33;-2.00;1.00
29093;DHT22;16167;48.768;14.984;2023-02-28T01:57:02;-2.10;1.00
29093;DHT22;16167;48.768;14.984;2023-02-28T01:59:32;-2.10;1.00
29093;DHT22;16167;48.768;14.984;2023-02-28T02:02:01;-2.20;1.00
29093;DHT22;16167;48.768;14.984;2023-02-28T02:04:34;-2.20;1.00
29093;DHT22;16167;48.768;14.984;2023-02-28T02:07:05;-2.20;1.00
29093;DHT22;16167;48.768;14.984;2023-02-28T02:09:33;-2.20;1.00
29093;DHT22;16167;48.768;14.984;2023-02-28T02:12:01;-2.30;1.00
29093;DHT22;16167;48.768;14.984;2023-02-28T02:14:37;-2.30;1.00
29093;DHT22;16167;48.768;14.984;2023-02-28T02:17:13;-2.30;1.00
29093;DHT22;16167;48.768;14.984;2023-02-28T02:19:55;-2.30;1.00
29093;DHT22;16167;48.768;14.984;2023-02-28T02:22:33;-2.40;1.00
29093;DHT22;16167;48.768;14.984;2023-02-28T02:25:09;-2.40;1.00
29093;DHT22;16167;48.768;14.984;2023-02-28T02:27:42;-2.50;1.00
29093;DHT22;16167;48.768;14.984;2023-02-28T02:30:32;-2.60;1.00
29093;DHT22;16167;48.768;14.984;2023-02-28T02:33:15;-2.70;1.00
29093;DHT22;16167;48.768;14.984;2023-02-28T02:35:51;-2.70;1.00
29093;DHT22;16167;48.768;14.984;2023-02-28T02:38:21;-2.70;1.00
29093;DHT22;16167;48.768;14.984;2023-02-28T02:40:56;-2.70;1.00
29093;DHT22;16167;48.768;14.984;2023-02-28T02:43:25;-2.70;1.00
29093;DHT22;16167;48.768;14.984;2023-02-28T02:45:56;-2.80;1.00
29093;DHT22;16167;48.768;14.984;2023-02-28T02:48:29;-2.80;1.00
29093;DHT22;16167;48.768;14.984;2023-02-28T02:51:00;-2.90;1.00
29093;DHT22;16167;48.768;14.984;2023-02-28T02:53:29;-2.90;1.00
29093;DHT22;16167;48.768;14.984;2023-02-28T02:55:58;-3.00;1.00
29093;DHT22;16167;48.768;14.984;2023-02-28T02:58:27;-3.00;1.00
29093;DHT22;16167;48.768;14.984;2023-02-28T03:00:57;-3.00;1.00
29093;DHT22;16167;48.768;14.984;2023-02-28T03:03:26;-3.10;1.00
29093;DHT22;16167;48.768;14.984;2023-02-28T03:05:56;-3.10;1.00
29093;DHT22;16167;48.768;14.984;2023-02-28T03:08:26;-3.10;1.00
29093;DHT22;16167;48.768;14.984;2023-02-28T03:10:55;-3.10;1.00
29093;DHT22;16167;48.768;14.984;2023-02-28T03:13:37;-3.20;1.00
29093;DHT22;16167;48.768;14.984;2023-02-28T03:16:14;-3.20;1.00
29093;DHT22;16167;48.768;14.984;2023-02-28T03:18:47;-3.30;1.00
29093;DHT22;16167;48.768;14.984;2023-02-28T03:21:21;-3.30;1.00
29093;DHT22;16167;48.768;14.984;2023-02-28T03:23:53;-3.30;1.00
29093;DHT22;16167;48.768;14.984;2023-02-28T03:26:24;-3.30;1.00
29093;DHT22;16167;48.768;14.984;2023-02-28T03:28:55;-3.30;1.00
29093;DHT22;16167;48.768;14.984;2023-02-28T03:31:27;-3.40;1.00
29093;DHT22;16167;48.768;14.984;2023-02-28T03:33:59;-3.40;1.00
29093;DHT22;16167;48.768;14.984;2023-02-28T03:36:28;-3.50;1.00
29093;DHT22;16167;48.768;14.984;2023-02-28T03:38:59;-3.50;1.00
29093;DHT22;16167;48.768;14.984;2023-02-28T03:41:30;-3.50;1.00
29093;DHT22;16167;48.768;14.984;2023-02-28T03:44:00;-3.60;1.00
29093;DHT22;16167;48.768;14.984;2023-02-28T03:46:33;-3.60;1.00
29093;DHT22;16167;48.768;14.984;2023-02-28T03:49:03;-3.70;1.00
29093;DHT22;16167;48.768;14.984;2023-02-28T03:51:33;-3.70;1.00
29093;DHT22;16167;48.768;14.984;2023-02-28T03:54:04;-3.70;1.00
29093;DHT22;16167;48.768;14.984;2023-02-28T03:56:34;-3.70;1.00
29093;DHT22;16167;48.768;14.984;2023-02-28T03:59:06;-3.80;1.00
29093;DHT22;16167;48.768;14.984;2023-02-28T04:01:35;-3.80;1.00
29093;DHT22;16167;48.768;14.984;2023-02-28T04:04:04;-3.80;1.00
29093;DHT22;16167;48.768;14.984;2023-02-28T04:06:32;-3.80;1.00
29093;DHT22;16167;48.768;14.984;2023-02-28T04:09:00;-3.80;1.00
29093;DHT22;16167;48.768;14.984;2023-02-28T04:11:32;-3.90;1.00
29093;DHT22;16167;48.768;14.984;2023-02-28T04:14:01;-3.90;1.00
29093;DHT22;16167;48.768;14.984;2023-02-28T04:16:29;-3.90;1.00
29093;DHT22;16167;48.768;14.984;2023-02-28T04:19:01;-3.90;1.00
29093;DHT22;16167;48.768;14.984;2023-02-28T04:21:30;-4.00;1.00
29093;DHT22;16167;48.768;14.984;2023-02-28T04:23:59;-4.00;1.00
29093;DHT22;16167;48.768;14.984;2023-02-28T04:26:28;-4.00;1.00
29093;DHT22;16167;48.768;14.984;2023-02-28T04:28:57;-4.00;1.00
29093;DHT22;16167;48.768;14.984;2023-02-28T04:31:25;-4.10;1.00
29093;DHT22;16167;48.768;14.984;2023-02-28T04:33:54;-4.10;1.00
29093;DHT22;16167;48.768;14.984;2023-02-28T04:36:23;-4.10;1.00
29093;DHT22;16167;48.768;14.984;2023-02-28T04:38:50;-4.10;1.00
29093;DHT22;16167;48.768;14.984;2023-02-28T04:41:19;-4.10;1.00
29093;DHT22;16167;48.768;14.984;2023-02-28T04:43:47;-4.10;1.00
29093;DHT22;16167;48.768;14.984;2023-02-28T04:46:16;-4.10;1.00
29093;DHT22;16167;48.768;14.984;2023-02-28T04:48:44;-4.20;1.00
29093;DHT22;16167;48.768;14.984;2023-02-28T04:51:13;-4.20;1.00
29093;DHT22;16167;48.768;14.984;2023-02-28T04:53:41;-4.10;1.00
29093;DHT22;16167;48.768;14.984;2023-02-28T04:56:10;-4.20;1.00
29093;DHT22;16167;48.768;14.984;2023-02-28T04:58:39;-4.10;1.00
29093;DHT22;16167;48.768;14.984;2023-02-28T05:01:14;-4.20;1.00
29093;DHT22;16167;48.768;14.984;2023-02-28T05:03:45;-4.20;1.00
29093;DHT22;16167;48.768;14.984;2023-02-28T05:06:13;-4.20;1.00
29093;DHT22;16167;48.768;14.984;2023-02-28T05:08:41;-4.30;1.00
29093;DHT22;16167;48.768;14.984;2023-02-28T05:11:12;-4.30;1.00
29093;DHT22;16167;48.768;14.984;2023-02-28T05:13:41;-4.30;1.00
29093;DHT22;16167;48.768;14.984;2023-02-28T05:16:09;-4.30;1.00
29093;DHT22;16167;48.768;14.984;2023-02-28T05:18:37;-4.30;1.00
29093;DHT22;16167;48.768;14.984;2023-02-28T05:21:12;-4.40;1.00
29093;DHT22;16167;48.768;14.984;2023-02-28T05:23:50;-4.40;1.00
29093;DHT22;16167;48.768;14.984;2023-02-28T05:26:19;-4.40;1.00
29093;DHT22;16167;48.768;14.984;2023-02-28T05:28:47;-4.50;1.00
29093;DHT22;16167;48.768;14.984;2023-02-28T05:31:15;-4.50;1.00
29093;DHT22;16167;48.768;14.984;2023-02-28T05:33:43;-4.50;1.00
29093;DHT22;16167;48.768;14.984;2023-02-28T05:36:12;-4.50;1.00
29093;DHT22;16167;48.768;14.984;2023-02-28T05:38:40;-4.50;1.00
29093;DHT22;16167;48.768;14.984;2023-02-28T05:41:08;-4.50;1.00
29093;DHT22;16167;48.768;14.984;2023-02-28T05:43:37;-4.50;1.00
29093;DHT22;16167;48.768;14.984;2023-02-28T05:46:05;-4.50;1.00
29093;DHT22;16167;48.768;14.984;2023-02-28T05:48:34;-4.50;1.00
29093;DHT22;16167;48.768;14.984;2023-02-28T05:51:02;-4.50;1.00
29093;DHT22;16167;48.768;14.984;2023-02-28T05:53:32;-4.60;1.00
29093;DHT22;16167;48.768;14.984;2023-02-28T05:56:00;-4.50;1.00
29093;DHT22;16167;48.768;14.984;2023-02-28T05:58:28;-4.50;1.00
29093;DHT22;16167;48.768;14.984;2023-02-28T06:00:58;-4.50;1.00
29093;DHT22;16167;48.768;14.984;2023-02-28T06:03:26;-4.50;1.00
29093;DHT22;16167;48.768;14.984;2023-02-28T06:05:54;-4.50;1.00
29093;DHT22;16167;48.768;14.984;2023-02-28T06:08:22;-4.50;1.00
29093;DHT22;16167;48.768;14.984;2023-02-28T06:10:51;-4.50;1.00
29093;DHT22;16167;48.768;14.984;2023-02-28T06:13:19;-4.50;1.00
29093;DHT22;16167;48.768;14.984;2023-02-28T06:15:47;-4.50;1.00
29093;DHT22;16167;48.768;14.984;2023-02-28T06:18:15;-4.50;1.00
29093;DHT22;16167;48.768;14.984;2023-02-28T06:20:43;-4.50;1.00
29093;DHT22;16167;48.768;14.984;2023-02-28T06:23:11;-4.40;1.00
29093;DHT22;16167;48.768;14.984;2023-02-28T06:25:38;-4.40;1.00
29093;DHT22;16167;48.768;14.984;2023-02-28T06:28:08;-4.30;1.00
29093;DHT22;16167;48.768;14.984;2023-02-28T06:30:36;-4.30;1.00
29093;DHT22;16167;48.768;14.984;2023-02-28T06:33:04;-4.30;1.00
29093;DHT22;16167;48.768;14.984;2023-02-28T06:35:32;-4.30;1.00
29093;DHT22;16167;48.768;14.984;2023-02-28T06:38:00;-4.30;1.00
29093;DHT22;16167;48.768;14.984;2023-02-28T06:40:28;-4.20;1.00
29093;DHT22;16167;48.768;14.984;2023-02-28T06:42:58;-4.10;1.00
29093;DHT22;16167;48.768;14.984;2023-02-28T06:45:27;-4.10;1.00
29093;DHT22;16167;48.768;14.984;2023-02-28T06:47:55;-4.00;1.00
29093;DHT22;16167;48.768;14.984;2023-02-28T06:50:23;-4.00;1.00
29093;DHT22;16167;48.768;14.984;2023-02-28T06:52:51;-3.90;1.00
29093;DHT22;16167;48.768;14.984;2023-02-28T06:55:20;-3.90;1.00
29093;DHT22;16167;48.768;14.984;2023-02-28T06:57:48;-3.80;1.00
29093;DHT22;16167;48.768;14.984;2023-02-28T07:00:17;-3.70;1.00
29093;DHT22;16167;48.768;14.984;2023-02-28T07:02:46;-3.60;1.00
29093;DHT22;16167;48.768;14.984;2023-02-28T07:05:14;-3.50;1.00
29093;DHT22;16167;48.768;14.984;2023-02-28T07:07:42;-3.50;1.00
29093;DHT22;16167;48.768;14.984;2023-02-28T07:10:13;-3.40;1.00
29093;DHT22;16167;48.768;14.984;2023-02-28T07:12:45;-3.40;1.00
29093;DHT22;16167;48.768;14.984;2023-02-28T07:15:13;-3.30;1.00
29093;DHT22;16167;48.768;14.984;2023-02-28T07:17:41;-3.20;1.00
29093;DHT22;16167;48.768;14.984;2023-02-28T07:20:11;-3.10;1.00
29093;DHT22;16167;48.768;14.984;2023-02-28T07:22:39;-3.00;1.00
29093;DHT22;16167;48.768;14.984;2023-02-28T07:25:08;-2.90;1.00
29093;DHT22;16167;48.768;14.984;2023-02-28T07:27:36;-2.80;1.00
29093;DHT22;16167;48.768;14.984;2023-02-28T07:30:04;-2.80;1.00
29093;DHT22;16167;48.768;14.984;2023-02-28T07:32:32;-2.70;1.00
29093;DHT22;16167;48.768;14.984;2023-02-28T07:35:04;-2.60;7.90
29093;DHT22;16167;48.768;14.984;2023-02-28T07:37:33;-2.50;17.10
29093;DHT22;16167;48.768;14.984;2023-02-28T07:40:03;-2.50;17.20
29093;DHT22;16167;48.768;14.984;2023-02-28T07:42:33;-2.40;16.10
29093;DHT22;16167;48.768;14.984;2023-02-28T07:45:01;-2.50;18.80
29093;DHT22;16167;48.768;14.984;2023-02-28T07:47:29;-2.30;12.80
29093;DHT22;16167;48.768;14.984;2023-02-28T07:49:57;-2.20;13.00
29093;DHT22;16167;48.768;14.984;2023-02-28T07:52:25;-2.10;19.40
29093;DHT22;16167;48.768;14.984;2023-02-28T07:54:54;-1.90;19.60
29093;DHT22;16167;48.768;14.984;2023-02-28T07:57:23;-1.70;27.30
29093;DHT22;16167;48.768;14.984;2023-02-28T07:59:52;-1.60;22.60
29093;DHT22;16167;48.768;14.984;2023-02-28T08:02:19;-1.40;19.00
29093;DHT22;16167;48.768;14.984;2023-02-28T08:04:47;-1.30;32.10
29093;DHT22;16167;48.768;14.984;2023-02-28T08:07:15;-1.10;30.10
29093;DHT22;16167;48.768;14.984;2023-02-28T08:09:44;-1.00;30.30
29093;DHT22;16167;48.768;14.984;2023-02-28T08:12:13;-0.90;27.90
29093;DHT22;16167;48.768;14.984;2023-02-28T08:14:41;-0.60;35.60
29093;DHT22;16167;48.768;14.984;2023-02-28T08:17:09;-0.50;37.40
29093;DHT22;16167;48.768;14.984;2023-02-28T08:19:37;-0.30;49.50
29093;DHT22;16167;48.768;14.984;2023-02-28T08:22:05;-0.20;51.90
29093;DHT22;16167;48.768;14.984;2023-02-28T08:24:34;0.00;61.70
29093;DHT22;16167;48.768;14.984;2023-02-28T08:27:01;0.00;64.80
29093;DHT22;16167;48.768;14.984;2023-02-28T08:29:31;0.20;66.10
29093;DHT22;16167;48.768;14.984;2023-02-28T08:31:59;0.20;64.20
29093;DHT22;16167;48.768;14.984;2023-02-28T08:34:27;0.20;64.80
29093;DHT22;16167;48.768;14.984;2023-02-28T08:36:55;0.20;62.20
29093;DHT22;16167;48.768;14.984;2023-02-28T08:39:23;0.20;64.30
29093;DHT22;16167;48.768;14.984;2023-02-28T08:41:50;0.30;67.60
29093;DHT22;16167;48.768;14.984;2023-02-28T08:44:32;0.30;69.30
29093;DHT22;16167;48.768;14.984;2023-02-28T08:47:00;0.50;70.10
29093;DHT22;16167;48.768;14.984;2023-02-28T08:49:28;0.50;72.80
29093;DHT22;16167;48.768;14.984;2023-02-28T08:51:56;0.70;73.90
29093;DHT22;16167;48.768;14.984;2023-02-28T08:54:24;0.90;73.60
29093;DHT22;16167;48.768;14.984;2023-02-28T08:56:52;1.00;69.40
29093;DHT22;16167;48.768;14.984;2023-02-28T08:59:20;1.20;72.60
29093;DHT22;16167;48.768;14.984;2023-02-28T09:01:49;1.30;75.90
29093;DHT22;16167;48.768;14.984;2023-02-28T09:04:17;1.60;91.30
29093;DHT22;16167;48.768;14.984;2023-02-28T09:06:46;1.70;94.50
29093;DHT22;16167;48.768;14.984;2023-02-28T09:09:15;1.90;96.00
29093;DHT22;16167;48.768;14.984;2023-02-28T09:11:43;1.90;95.10
29093;DHT22;16167;48.768;14.984;2023-02-28T09:14:11;1.90;95.40
29093;DHT22;16167;48.768;14.984;2023-02-28T09:16:39;1.90;95.00
29093;DHT22;16167;48.768;14.984;2023-02-28T09:19:11;1.80;95.00
29093;DHT22;16167;48.768;14.984;2023-02-28T09:21:39;1.90;95.60
29093;DHT22;16167;48.768;14.984;2023-02-28T09:24:07;1.90;95.60
29093;DHT22;16167;48.768;14.984;2023-02-28T09:26:35;1.80;95.80
29093;DHT22;16167;48.768;14.984;2023-02-28T09:29:17;1.90;95.30
29093;DHT22;16167;48.768;14.984;2023-02-28T09:31:45;1.90;95.30
29093;DHT22;16167;48.768;14.984;2023-02-28T09:34:15;1.90;95.20
29093;DHT22;16167;48.768;14.984;2023-02-28T09:36:44;1.90;95.70
29093;DHT22;16167;48.768;14.984;2023-02-28T09:39:13;2.10;95.40
29093;DHT22;16167;48.768;14.984;2023-02-28T09:41:42;2.20;95.10
29093;DHT22;16167;48.768;14.984;2023-02-28T09:44:16;2.30;95.40
29093;DHT22;16167;48.768;14.984;2023-02-28T09:46:46;2.30;95.30
29093;DHT22;16167;48.768;14.984;2023-02-28T09:49:17;2.20;97.40
29093;DHT22;16167;48.768;14.984;2023-02-28T09:51:47;2.30;97.20
29093;DHT22;16167;48.768;14.984;2023-02-28T09:54:18;2.30;96.70
29093;DHT22;16167;48.768;14.984;2023-02-28T09:56:48;2.20;97.00
29093;DHT22;16167;48.768;14.984;2023-02-28T09:59:23;2.20;97.10
29093;DHT22;16167;48.768;14.984;2023-02-28T10:01:54;2.30;97.00
29093;DHT22;16167;48.768;14.984;2023-02-28T10:04:33;2.30;96.70
29093;DHT22;16167;48.768;14.984;2023-02-28T10:07:03;2.30;96.70
29093;DHT22;16167;48.768;14.984;2023-02-28T10:09:33;2.30;96.40
29093;DHT22;16167;48.768;14.984;2023-02-28T10:12:04;2.30;96.70
29093;DHT22;16167;48.768;14.984;2023-02-28T10:14:33;2.40;96.10
29093;DHT22;16167;48.768;14.984;2023-02-28T10:17:02;2.60;96.80
29093;DHT22;16167;48.768;14.984;2023-02-28T10:19:35;2.80;96.40
29093;DHT22;16167;48.768;14.984;2023-02-28T10:22:09;2.90;96.10
29093;DHT22;16167;48.768;14.984;2023-02-28T10:24:39;3.10;96.00
29093;DHT22;16167;48.768;14.984;2023-02-28T10:27:12;3.20;95.70
29093;DHT22;16167;48.768;14.984;2023-02-28T10:29:41;3.30;95.40
29093;DHT22;16167;48.768;14.984;2023-02-28T10:32:10;3.40;95.80
29093;DHT22;16167;48.768;14.984;2023-02-28T10:34:41;3.60;95.40
29093;DHT22;16167;48.768;14.984;2023-02-28T10:37:09;3.80;94.60
29093;DHT22;16167;48.768;14.984;2023-02-28T10:39:38;4.10;94.50
29093;DHT22;16167;48.768;14.984;2023-02-28T10:42:18;4.40;93.50
29093;DHT22;16167;48.768;14.984;2023-02-28T10:44:46;4.50;93.10
29093;DHT22;16167;48.768;14.984;2023-02-28T10:47:15;4.80;93.90
29093;DHT22;16167;48.768;14.984;2023-02-28T10:49:49;5.00;93.50
29093;DHT22;16167;48.768;14.984;2023-02-28T10:52:32;5.10;93.00
29093;DHT22;16167;48.768;14.984;2023-02-28T10:55:13;5.20;92.60
29093;DHT22;16167;48.768;14.984;2023-02-28T10:57:41;5.70;92.50
29093;DHT22;16167;48.768;14.984;2023-02-28T11:00:13;5.70;91.50
29093;DHT22;16167;48.768;14.984;2023-02-28T11:02:41;5.90;91.10
29093;DHT22;16167;48.768;14.984;2023-02-28T11:05:25;6.40;90.90
29093;DHT22;16167;48.768;14.984;2023-02-28T11:07:54;6.00;88.20
29093;DHT22;16167;48.768;14.984;2023-02-28T11:10:24;5.90;89.50
29093;DHT22;16167;48.768;14.984;2023-02-28T11:12:54;6.30;88.40
29093;DHT22;16167;48.768;14.984;2023-02-28T11:15:25;6.50;87.50
29093;DHT22;16167;48.768;14.984;2023-02-28T11:17:53;6.50;85.50
29093;DHT22;16167;48.768;14.984;2023-02-28T11:20:23;6.70;84.50
29093;DHT22;16167;48.768;14.984;2023-02-28T11:22:53;6.50;83.90
29093;DHT22;16167;48.768;14.984;2023-02-28T11:25:22;6.40;85.50
29093;DHT22;16167;48.768;14.984;2023-02-28T11:27:52;6.00;84.20
29093;DHT22;16167;48.768;14.984;2023-02-28T11:30:28;5.90;84.70
29093;DHT22;16167;48.768;14.984;2023-02-28T11:32:56;5.70;85.00
29093;DHT22;16167;48.768;14.984;2023-02-28T11:35:26;5.50;85.80
29093;DHT22;16167;48.768;14.984;2023-02-28T11:37:58;5.50;85.80
29093;DHT22;16167;48.768;14.984;2023-02-28T11:40:28;5.60;86.90
29093;DHT22;16167;48.768;14.984;2023-02-28T11:43:00;5.40;86.60
29093;DHT22;16167;48.768;14.984;2023-02-28T11:45:35;5.30;85.40
29093;DHT22;16167;48.768;14.984;2023-02-28T11:48:08;5.10;86.80
29093;DHT22;16167;48.768;14.984;2023-02-28T11:50:45;4.90;86.10
29093;DHT22;16167;48.768;14.984;2023-02-28T11:53:19;4.60;87.50
29093;DHT22;16167;48.768;14.984;2023-02-28T11:55:51;4.50;90.00
29093;DHT22;16167;48.768;14.984;2023-02-28T12:03:58;4.30;90.00
29093;DHT22;16167;48.768;14.984;2023-02-28T12:06:28;4.30;90.00
29093;DHT22;16167;48.768;14.984;2023-02-28T12:11:46;4.30;90.70
29093;DHT22;16167;48.768;14.984;2023-02-28T12:14:20;4.40;90.60
29093;DHT22;16167;48.768;14.984;2023-02-28T12:16:58;4.60;90.30
29093;DHT22;16167;48.768;14.984;2023-02-28T12:19:27;4.40;89.00
29093;DHT22;16167;48.768;14.984;2023-02-28T12:22:03;4.30;90.40
29093;DHT22;16167;48.768;14.984;2023-02-28T12:27:20;4.70;90.80
29093;DHT22;16167;48.768;14.984;2023-02-28T12:29:52;4.50;88.60
29093;DHT22;16167;48.768;14.984;2023-02-28T12:32:23;4.70;90.00
29093;DHT22;16167;48.768;14.984;2023-02-28T12:34:55;4.60;89.70
29093;DHT22;16167;48.768;14.984;2023-02-28T12:37:31;4.70;90.20
29093;DHT22;16167;48.768;14.984;2023-02-28T12:40:02;5.00;90.20
29093;DHT22;16167;48.768;14.984;2023-02-28T12:42:36;5.00;90.90
29093;DHT22;16167;48.768;14.984;2023-02-28T12:45:05;5.00;90.50
29093;DHT22;16167;48.768;14.984;2023-02-28T12:47:37;4.90;90.80
29093;DHT22;16167;48.768;14.984;2023-02-28T12:50:07;4.80;91.20
29093;DHT22;16167;48.768;14.984;2023-02-28T12:52:40;4.70;91.50
29093;DHT22;16167;48.768;14.984;2023-02-28T12:55:12;4.70;91.10
29093;DHT22;16167;48.768;14.984;2023-02-28T12:57:45;4.70;91.20
29093;DHT22;16167;48.768;14.984;2023-02-28T13:00:16;4.70;90.50
29093;DHT22;16167;48.768;14.984;2023-02-28T13:03:08;4.60;90.90
29093;DHT22;16167;48.768;14.984;2023-02-28T13:11:22;4.40;90.90
29093;DHT22;16167;48.768;14.984;2023-02-28T13:13:58;4.30;91.00
29093;DHT22;16167;48.768;14.984;2023-02-28T13:16:26;4.30;91.10
29093;DHT22;16167;48.768;14.984;2023-02-28T13:18:57;4.30;91.40
29093;DHT22;16167;48.768;14.984;2023-02-28T13:21:41;4.30;91.30
29093;DHT22;16167;48.768;14.984;2023-02-28T13:24:10;4.40;91.30
29093;DHT22;16167;48.768;14.984;2023-02-28T13:29:29;4.20;91.40
29093;DHT22;16167;48.768;14.984;2023-02-28T13:34:46;4.00;91.30
29093;DHT22;16167;48.768;14.984;2023-02-28T13:37:35;4.00;91.50
29093;DHT22;16167;48.768;14.984;2023-02-28T13:42:49;3.90;92.10
29093;DHT22;16167;48.768;14.984;2023-02-28T13:45:29;3.90;91.50
29093;DHT22;16167;48.768;14.984;2023-02-28T13:48:04;3.90;91.40
29093;DHT22;16167;48.768;14.984;2023-02-28T13:50:33;3.90;91.70
29093;DHT22;16167;48.768;14.984;2023-02-28T13:55:53;3.80;91.50
29093;DHT22;16167;48.768;14.984;2023-02-28T13:58:27;3.80;91.60
29093;DHT22;16167;48.768;14.984;2023-02-28T14:01:06;3.80;91.20
29093;DHT22;16167;48.768;14.984;2023-02-28T14:03:44;3.80;91.30
29093;DHT22;16167;48.768;14.984;2023-02-28T14:06:22;3.70;91.70
29093;DHT22;16167;48.768;14.984;2023-02-28T14:08:55;3.60;91.80
29093;DHT22;16167;48.768;14.984;2023-02-28T14:11:26;3.60;91.60
29093;DHT22;16167;48.768;14.984;2023-02-28T14:13:54;3.50;91.60
29093;DHT22;16167;48.768;14.984;2023-02-28T14:16:23;3.50;91.90
29093;DHT22;16167;48.768;14.984;2023-02-28T14:18:55;3.50;91.40
29093;DHT22;16167;48.768;14.984;2023-02-28T14:21:24;3.40;91.70
29093;DHT22;16167;48.768;14.984;2023-02-28T14:23:57;3.40;92.10
29093;DHT22;16167;48.768;14.984;2023-02-28T14:26:37;3.40;91.90
29093;DHT22;16167;48.768;14.984;2023-02-28T14:29:14;3.40;92.20
29093;DHT22;16167;48.768;14.984;2023-02-28T14:31:46;3.30;92.10
29093;DHT22;16167;48.768;14.984;2023-02-28T14:34:26;3.30;92.60
29093;DHT22;16167;48.768;14.984;2023-02-28T14:36:55;3.30;92.60
29093;DHT22;16167;48.768;14.984;2023-02-28T14:39:26;3.30;92.00
29093;DHT22;16167;48.768;14.984;2023-02-28T14:41:57;3.30;92.10
29093;DHT22;16167;48.768;14.984;2023-02-28T14:44:30;3.20;92.20
29093;DHT22;16167;48.768;14.984;2023-02-28T14:47:00;3.20;91.80
29093;DHT22;16167;48.768;14.984;2023-02-28T14:49:31;3.20;92.10
29093;DHT22;16167;48.768;14.984;2023-02-28T14:52:05;3.10;92.50
29093;DHT22;16167;48.768;14.984;2023-02-28T14:54:36;3.10;92.60
29093;DHT22;16167;48.768;14.984;2023-02-28T14:57:04;3.10;92.40
29093;DHT22;16167;48.768;14.984;2023-02-28T14:59:33;3.10;92.70
29093;DHT22;16167;48.768;14.984;2023-02-28T15:02:19;3.10;92.70
29093;DHT22;16167;48.768;14.984;2023-02-28T15:04:55;3.10;92.60
29093;DHT22;16167;48.768;14.984;2023-02-28T15:07:23;3.10;92.40
29093;DHT22;16167;48.768;14.984;2023-02-28T15:10:13;3.00;92.70
29093;DHT22;16167;48.768;14.984;2023-02-28T15:12:41;3.00;92.50
29093;DHT22;16167;48.768;14.984;2023-02-28T15:15:14;3.00;92.40
29093;DHT22;16167;48.768;14.984;2023-02-28T15:17:44;3.00;92.10
29093;DHT22;16167;48.768;14.984;2023-02-28T15:20:13;3.00;92.80
29093;DHT22;16167;48.768;14.984;2023-02-28T15:22:41;2.90;92.50
29093;DHT22;16167;48.768;14.984;2023-02-28T15:25:10;2.90;93.00
29093;DHT22;16167;48.768;14.984;2023-02-28T15:27:42;2.80;92.50
29093;DHT22;16167;48.768;14.984;2023-02-28T15:30:14;2.70;92.80
29093;DHT22;16167;48.768;14.984;2023-02-28T15:32:45;2.70;92.90
29093;DHT22;16167;48.768;14.984;2023-02-28T15:35:29;2.70;93.20
29093;DHT22;16167;48.768;14.984;2023-02-28T15:38:00;2.70;93.20
29093;DHT22;16167;48.768;14.984;2023-02-28T15:40:29;2.70;92.40
29093;DHT22;16167;48.768;14.984;2023-02-28T15:42:57;2.70;92.50
29093;DHT22;16167;48.768;14.984;2023-02-28T15:45:26;2.70;92.70
29093;DHT22;16167;48.768;14.984;2023-02-28T15:47:56;2.70;92.10
29093;DHT22;16167;48.768;14.984;2023-02-28T15:50:37;2.60;92.20
29093;DHT22;16167;48.768;14.984;2023-02-28T15:53:08;2.50;90.80
29093;DHT22;16167;48.768;14.984;2023-02-28T15:55:39;2.50;81.80
29093;DHT22;16167;48.768;14.984;2023-02-28T15:58:08;2.50;81.50
29093;DHT22;16167;48.768;14.984;2023-02-28T16:00:39;2.50;79.70
29093;DHT22;16167;48.768;14.984;2023-02-28T16:03:26;2.40;78.90
29093;DHT22;16167;48.768;14.984;2023-02-28T16:08:52;2.30;79.30
29093;DHT22;16167;48.768;14.984;2023-02-28T16:11:20;2.20;76.60
29093;DHT22;16167;48.768;14.984;2023-02-28T16:13:49;2.20;67.70
29093;DHT22;16167;48.768;14.984;2023-02-28T16:16:18;2.10;63.00
29093;DHT22;16167;48.768;14.984;2023-02-28T16:18:47;2.10;65.70
29093;DHT22;16167;48.768;14.984;2023-02-28T16:21:16;2.10;61.70
29093;DHT22;16167;48.768;14.984;2023-02-28T16:23:44;2.10;50.70